This is the latest recevied weather packets stored in our database for station/object C31FR-13. If no packets are shown the sender has not sent any weather packets the latest 10 day(s).
| Time | Temp. | Humidity | Pressure | Rain* | Wind** | Luminosity | Snow |
|---|---|---|---|---|---|---|---|
| 1777550763 | 17.78° C | 65% | 1016.8 hPa | - | - | - | - |
| 1777550462 | 17.78° C | 66% | 1016.8 hPa | - | - | - | - |
| 1777550163 | 17.78° C | 68% | 1016.8 hPa | - | - | - | - |
| 1777549563 | 17.78° C | 71% | 1017 hPa | - | - | - | - |
| 1777548362 | 16.67° C | 77% | 1017.4 hPa | - | - | - | - |
| 1777547762 | 16.67° C | 81% | 1017.6 hPa | - | - | - | - |
| 1777547463 | 16.67° C | 82% | 1017.7 hPa | - | - | - | - |
| 1777547163 | 16.11° C | 84% | 1017.8 hPa | - | - | - | - |
| 1777546863 | 16.11° C | 83% | 1017.8 hPa | - | - | - | - |
| 1777546563 | 16.11° C | 87% | 1017.9 hPa | - | - | - | - |
| 1777545363 | 15° C | 95% | 1018.1 hPa | - | - | - | - |
| 1777545062 | 15° C | 85% | 1018.1 hPa | - | - | - | - |
| 1777544762 | 15.56° C | 82% | 1018.1 hPa | - | - | - | - |
| 1777544163 | 15.56° C | 90% | 1018 hPa | - | - | - | - |
| 1777543863 | 15.56° C | 79% | 1017.9 hPa | - | - | - | - |
| 1777543563 | 15.56° C | 76% | 1018 hPa | - | - | - | - |
| 1777542663 | 16.11° C | 69% | 1017.6 hPa | - | - | - | - |
| 1777542362 | 16.11° C | 70% | 1017.5 hPa | - | - | - | - |
| 1777542063 | 16.11° C | 71% | 1017.5 hPa | - | - | - | - |
| 1777541762 | 16.11° C | 71% | 1017.5 hPa | - | - | - | - |
| 1777541463 | 16.11° C | 71% | 1017.6 hPa | - | - | - | - |
| 1777541162 | 16.11° C | 71% | 1017.6 hPa | - | - | - | - |
| 1777540862 | 16.11° C | 71% | 1017.7 hPa | - | - | - | - |
| 1777540563 | 15.56° C | 72% | 1017.7 hPa | - | - | - | - |
| 1777540262 | 15.56° C | 72% | 1017.7 hPa | - | - | - | - |
* Rain since midnight (hover to see other rain measurements)
** Current wind speed in m/s (hover to see current wind gust speed)